sensor_id;sensor_type;location;lat;lon;timestamp;pressure;altitude;pressure_sealevel;temperature;humidity
69713;BME280;56980;51.826;4.424;2022-09-27T00:01:42;99917.81;;;11.79;79.21
69713;BME280;56980;51.826;4.424;2022-09-27T00:04:10;99922.34;;;11.97;78.73
69713;BME280;56980;51.826;4.424;2022-09-27T00:06:36;99930.19;;;12.10;78.83
69713;BME280;56980;51.826;4.424;2022-09-27T00:09:02;99916.25;;;12.17;78.41
69713;BME280;56980;51.826;4.424;2022-09-27T00:13:57;99937.06;;;12.55;77.51
69713;BME280;56980;51.826;4.424;2022-09-27T00:16:26;99936.25;;;12.34;78.41
69713;BME280;56980;51.826;4.424;2022-09-27T00:18:52;99933.16;;;12.26;78.58
69713;BME280;56980;51.826;4.424;2022-09-27T00:21:18;99926.72;;;12.24;78.38
69713;BME280;56980;51.826;4.424;2022-09-27T00:23:43;99925.47;;;12.40;77.99
69713;BME280;56980;51.826;4.424;2022-09-27T00:26:11;99925.97;;;12.38;77.47
69713;BME280;56980;51.826;4.424;2022-09-27T00:28:37;99925.00;;;12.41;77.78
69713;BME280;56980;51.826;4.424;2022-09-27T00:31:03;99912.00;;;12.45;77.56
69713;BME280;56980;51.826;4.424;2022-09-27T00:33:29;99926.56;;;12.62;77.16
69713;BME280;56980;51.826;4.424;2022-09-27T00:35:54;99933.50;;;12.63;77.16
69713;BME280;56980;51.826;4.424;2022-09-27T00:38:19;99934.13;;;12.73;76.82
69713;BME280;56980;51.826;4.424;2022-09-27T00:40:45;99937.31;;;12.72;76.79
69713;BME280;56980;51.826;4.424;2022-09-27T00:43:18;99936.66;;;12.77;76.91
69713;BME280;56980;51.826;4.424;2022-09-27T00:46:05;99942.31;;;12.58;77.35
69713;BME280;56980;51.826;4.424;2022-09-27T00:48:32;99938.16;;;12.28;78.48
69713;BME280;56980;51.826;4.424;2022-09-27T00:51:01;99938.81;;;12.23;78.05
69713;BME280;56980;51.826;4.424;2022-09-27T00:53:38;99956.94;;;12.46;77.60
69713;BME280;56980;51.826;4.424;2022-09-27T00:56:09;99940.19;;;12.33;77.55
69713;BME280;56980;51.826;4.424;2022-09-27T00:58:42;99939.72;;;12.49;77.33
69713;BME280;56980;51.826;4.424;2022-09-27T01:01:08;99958.06;;;12.54;77.31
69713;BME280;56980;51.826;4.424;2022-09-27T01:03:58;99977.63;;;11.46;79.77
69713;BME280;56980;51.826;4.424;2022-09-27T01:06:24;99964.56;;;11.21;76.66
69713;BME280;56980;51.826;4.424;2022-09-27T01:08:50;99956.00;;;11.13;76.70
69713;BME280;56980;51.826;4.424;2022-09-27T01:11:44;99979.78;;;11.19;76.37
69713;BME280;56980;51.826;4.424;2022-09-27T01:20:06;99994.66;;;11.47;75.75
69713;BME280;56980;51.826;4.424;2022-09-27T01:23:05;99994.97;;;11.87;75.83
69713;BME280;56980;51.826;4.424;2022-09-27T01:34:25;99989.09;;;11.65;75.15
69713;BME280;56980;51.826;4.424;2022-09-27T01:41:52;99971.03;;;11.62;76.81
69713;BME280;56980;51.826;4.424;2022-09-27T01:44:31;99968.56;;;11.49;76.73
69713;BME280;56980;51.826;4.424;2022-09-27T01:47:02;99963.25;;;11.55;76.40
69713;BME280;56980;51.826;4.424;2022-09-27T01:49:52;99961.94;;;11.89;76.96
69713;BME280;56980;51.826;4.424;2022-09-27T01:52:23;99963.69;;;11.92;76.86
69713;BME280;56980;51.826;4.424;2022-09-27T01:54:55;99957.72;;;11.88;76.43
69713;BME280;56980;51.826;4.424;2022-09-27T01:57:26;99964.00;;;11.94;76.33
69713;BME280;56980;51.826;4.424;2022-09-27T01:59:58;99949.66;;;11.79;76.60
69713;BME280;56980;51.826;4.424;2022-09-27T02:02:27;99952.47;;;11.84;76.34
69713;BME280;56980;51.826;4.424;2022-09-27T02:04:57;99939.19;;;11.86;77.79
69713;BME280;56980;51.826;4.424;2022-09-27T02:07:32;99950.06;;;12.16;76.45
69713;BME280;56980;51.826;4.424;2022-09-27T02:10:02;99948.81;;;11.87;77.27
69713;BME280;56980;51.826;4.424;2022-09-27T02:12:39;99962.97;;;11.92;77.73
69713;BME280;56980;51.826;4.424;2022-09-27T02:15:10;99962.75;;;11.80;78.17
69713;BME280;56980;51.826;4.424;2022-09-27T02:17:42;99967.84;;;12.02;77.53
69713;BME280;56980;51.826;4.424;2022-09-27T02:20:30;99980.19;;;11.88;78.18
69713;BME280;56980;51.826;4.424;2022-09-27T02:26:41;99989.81;;;11.51;78.66
69713;BME280;56980;51.826;4.424;2022-09-27T02:29:23;99962.06;;;11.08;81.11
69713;BME280;56980;51.826;4.424;2022-09-27T02:31:52;99951.41;;;11.29;80.45
69713;BME280;56980;51.826;4.424;2022-09-27T02:36:43;99965.13;;;11.01;81.43
69713;BME280;56980;51.826;4.424;2022-09-27T02:39:08;99967.44;;;11.18;81.05
69713;BME280;56980;51.826;4.424;2022-09-27T02:41:34;99965.69;;;11.05;80.91
69713;BME280;56980;51.826;4.424;2022-09-27T02:44:05;99970.34;;;10.81;80.49
69713;BME280;56980;51.826;4.424;2022-09-27T02:46:56;99970.47;;;10.87;82.25
69713;BME280;56980;51.826;4.424;2022-09-27T03:00:25;100002.28;;;11.34;81.83
69713;BME280;56980;51.826;4.424;2022-09-27T03:03:00;100004.47;;;11.21;81.97
69713;BME280;56980;51.826;4.424;2022-09-27T03:05:32;99984.66;;;11.05;81.10
69713;BME280;56980;51.826;4.424;2022-09-27T03:07:59;99974.53;;;11.15;80.57
69713;BME280;56980;51.826;4.424;2022-09-27T03:10:26;99962.59;;;11.22;80.50
69713;BME280;56980;51.826;4.424;2022-09-27T03:12:52;99969.88;;;11.16;81.14
69713;BME280;56980;51.826;4.424;2022-09-27T03:15:19;99964.91;;;11.14;80.09
69713;BME280;56980;51.826;4.424;2022-09-27T03:17:45;99966.72;;;11.32;80.15
69713;BME280;56980;51.826;4.424;2022-09-27T03:20:11;99956.69;;;11.47;80.11
69713;BME280;56980;51.826;4.424;2022-09-27T03:22:36;99950.50;;;11.46;78.89
69713;BME280;56980;51.826;4.424;2022-09-27T03:25:03;99946.78;;;11.44;79.49
69713;BME280;56980;51.826;4.424;2022-09-27T03:27:29;99950.09;;;11.39;79.46
69713;BME280;56980;51.826;4.424;2022-09-27T03:29:55;99969.06;;;11.63;78.79
69713;BME280;56980;51.826;4.424;2022-09-27T03:32:20;99985.78;;;11.23;79.90
69713;BME280;56980;51.826;4.424;2022-09-27T03:34:45;99955.13;;;11.55;79.26
69713;BME280;56980;51.826;4.424;2022-09-27T03:37:11;99967.38;;;11.50;79.54
69713;BME280;56980;51.826;4.424;2022-09-27T03:39:36;99980.09;;;11.59;79.47
69713;BME280;56980;51.826;4.424;2022-09-27T03:42:01;99994.50;;;11.65;78.91
69713;BME280;56980;51.826;4.424;2022-09-27T03:44:27;99994.91;;;11.10;80.59
69713;BME280;56980;51.826;4.424;2022-09-27T03:46:52;100010.97;;;10.48;80.56
69713;BME280;56980;51.826;4.424;2022-09-27T03:49:17;99987.13;;;10.01;83.40
69713;BME280;56980;51.826;4.424;2022-09-27T03:51:43;99976.28;;;10.28;82.62
69713;BME280;56980;51.826;4.424;2022-09-27T03:54:09;99976.22;;;10.38;82.62
69713;BME280;56980;51.826;4.424;2022-09-27T03:56:34;99968.06;;;10.56;82.94
69713;BME280;56980;51.826;4.424;2022-09-27T03:59:00;99961.22;;;10.69;82.11
69713;BME280;56980;51.826;4.424;2022-09-27T04:01:26;99946.66;;;10.58;82.00
69713;BME280;56980;51.826;4.424;2022-09-27T04:03:52;99949.50;;;10.96;80.85
69713;BME280;56980;51.826;4.424;2022-09-27T04:06:18;99951.91;;;10.94;81.06
69713;BME280;56980;51.826;4.424;2022-09-27T04:08:44;99976.88;;;10.98;81.03
69713;BME280;56980;51.826;4.424;2022-09-27T04:11:10;99986.81;;;11.01;81.45
69713;BME280;56980;51.826;4.424;2022-09-27T04:13:35;99975.84;;;10.96;81.45
69713;BME280;56980;51.826;4.424;2022-09-27T04:16:01;99973.66;;;11.09;79.90
69713;BME280;56980;51.826;4.424;2022-09-27T04:18:27;99967.94;;;11.07;80.61
69713;BME280;56980;51.826;4.424;2022-09-27T04:20:52;99964.66;;;11.27;80.96
69713;BME280;56980;51.826;4.424;2022-09-27T04:23:17;99970.09;;;11.27;80.78
69713;BME280;56980;51.826;4.424;2022-09-27T04:25:43;99973.09;;;11.29;80.13
69713;BME280;56980;51.826;4.424;2022-09-27T04:28:09;99973.09;;;11.29;80.26
69713;BME280;56980;51.826;4.424;2022-09-27T04:30:34;99971.03;;;11.24;80.72
69713;BME280;56980;51.826;4.424;2022-09-27T04:32:59;99958.53;;;11.41;79.94
69713;BME280;56980;51.826;4.424;2022-09-27T04:35:25;99975.16;;;11.58;79.02
69713;BME280;56980;51.826;4.424;2022-09-27T04:38:08;99965.47;;;11.42;79.94
69713;BME280;56980;51.826;4.424;2022-09-27T04:40:34;99976.41;;;11.47;79.78
69713;BME280;56980;51.826;4.424;2022-09-27T04:43:00;99973.25;;;11.25;79.15
69713;BME280;56980;51.826;4.424;2022-09-27T04:45:25;99964.31;;;11.34;78.32
69713;BME280;56980;51.826;4.424;2022-09-27T04:47:51;99967.78;;;11.10;80.18
69713;BME280;56980;51.826;4.424;2022-09-27T04:50:17;99979.84;;;11.33;79.88
69713;BME280;56980;51.826;4.424;2022-09-27T04:52:42;99980.06;;;11.21;79.83
69713;BME280;56980;51.826;4.424;2022-09-27T04:55:09;99981.13;;;11.23;79.92
69713;BME280;56980;51.826;4.424;2022-09-27T04:57:35;99970.88;;;11.42;79.02
69713;BME280;56980;51.826;4.424;2022-09-27T05:00:01;99991.72;;;10.79;80.63
69713;BME280;56980;51.826;4.424;2022-09-27T05:02:27;100006.78;;;10.80;81.25
69713;BME280;56980;51.826;4.424;2022-09-27T05:04:53;100002.00;;;10.75;80.62
69713;BME280;56980;51.826;4.424;2022-09-27T05:07:25;99981.53;;;10.98;80.85
69713;BME280;56980;51.826;4.424;2022-09-27T05:09:50;99982.03;;;10.96;79.63
69713;BME280;56980;51.826;4.424;2022-09-27T05:12:16;99975.63;;;11.08;78.86
69713;BME280;56980;51.826;4.424;2022-09-27T05:14:41;99974.69;;;11.11;79.18
69713;BME280;56980;51.826;4.424;2022-09-27T05:17:06;99981.06;;;11.08;80.05
69713;BME280;56980;51.826;4.424;2022-09-27T05:19:33;99970.22;;;11.08;79.89
69713;BME280;56980;51.826;4.424;2022-09-27T05:21:58;99965.34;;;11.12;79.97
69713;BME280;56980;51.826;4.424;2022-09-27T05:24:24;99969.94;;;11.30;78.94
69713;BME280;56980;51.826;4.424;2022-09-27T05:26:49;99974.59;;;11.30;79.20
69713;BME280;56980;51.826;4.424;2022-09-27T05:29:15;99969.94;;;11.30;79.55
69713;BME280;56980;51.826;4.424;2022-09-27T05:31:41;99961.78;;;11.06;80.44
69713;BME280;56980;51.826;4.424;2022-09-27T05:34:07;99963.50;;;11.19;80.66
69713;BME280;56980;51.826;4.424;2022-09-27T05:36:33;99967.91;;;11.16;80.87
69713;BME280;56980;51.826;4.424;2022-09-27T05:38:59;99972.06;;;11.02;81.41
69713;BME280;56980;51.826;4.424;2022-09-27T05:41:24;99958.41;;;11.11;81.00
69713;BME280;56980;51.826;4.424;2022-09-27T05:43:50;99966.56;;;11.35;80.43
69713;BME280;56980;51.826;4.424;2022-09-27T05:46:16;99969.03;;;11.48;79.94
69713;BME280;56980;51.826;4.424;2022-09-27T05:48:42;99965.09;;;11.49;79.43
69713;BME280;56980;51.826;4.424;2022-09-27T05:51:07;99985.97;;;11.43;80.26
69713;BME280;56980;51.826;4.424;2022-09-27T05:53:32;99970.28;;;11.23;80.53
69713;BME280;56980;51.826;4.424;2022-09-27T05:56:02;99953.25;;;11.23;80.17
69713;BME280;56980;51.826;4.424;2022-09-27T05:58:28;99950.44;;;11.56;79.21
69713;BME280;56980;51.826;4.424;2022-09-27T06:00:54;99939.59;;;11.32;79.55
69713;BME280;56980;51.826;4.424;2022-09-27T06:03:19;99958.47;;;11.50;79.28
69713;BME280;56980;51.826;4.424;2022-09-27T06:05:45;99959.63;;;11.34;79.47
69713;BME280;56980;51.826;4.424;2022-09-27T06:08:12;99969.72;;;11.34;79.77
69713;BME280;56980;51.826;4.424;2022-09-27T06:10:38;99968.00;;;11.22;79.82
69713;BME280;56980;51.826;4.424;2022-09-27T06:13:11;99965.25;;;11.31;79.50
69713;BME280;56980;51.826;4.424;2022-09-27T06:15:38;99966.44;;;11.53;79.05
69713;BME280;56980;51.826;4.424;2022-09-27T06:18:06;99958.75;;;11.52;79.04
69713;BME280;56980;51.826;4.424;2022-09-27T06:20:34;99964.00;;;11.56;79.07
69713;BME280;56980;51.826;4.424;2022-09-27T06:23:11;99968.69;;;11.55;78.90
69713;BME280;56980;51.826;4.424;2022-09-27T06:25:38;99980.25;;;11.41;80.63
69713;BME280;56980;51.826;4.424;2022-09-27T06:28:04;99985.81;;;11.61;79.75
69713;BME280;56980;51.826;4.424;2022-09-27T06:30:30;99980.44;;;11.52;80.08
69713;BME280;56980;51.826;4.424;2022-09-27T06:33:00;99985.44;;;11.06;81.82
69713;BME280;56980;51.826;4.424;2022-09-27T06:35:27;99989.03;;;11.36;81.23
69713;BME280;56980;51.826;4.424;2022-09-27T06:37:52;99967.78;;;11.10;81.20
69713;BME280;56980;51.826;4.424;2022-09-27T06:40:18;99976.88;;;10.98;82.08
69713;BME280;56980;51.826;4.424;2022-09-27T06:42:44;99978.13;;;10.97;82.42
69713;BME280;56980;51.826;4.424;2022-09-27T06:45:11;99964.00;;;11.32;81.34
69713;BME280;56980;51.826;4.424;2022-09-27T06:47:37;99987.69;;;11.31;81.47
69713;BME280;56980;51.826;4.424;2022-09-27T06:50:04;99952.44;;;11.07;82.11
69713;BME280;56980;51.826;4.424;2022-09-27T06:52:34;99987.50;;;11.35;82.00
69713;BME280;56980;51.826;4.424;2022-09-27T06:55:02;99950.47;;;11.08;81.53
69713;BME280;56980;51.826;4.424;2022-09-27T06:57:28;99990.03;;;11.38;81.59
69713;BME280;56980;51.826;4.424;2022-09-27T07:00:12;100002.00;;;11.32;81.29
69713;BME280;56980;51.826;4.424;2022-09-27T07:02:54;99995.59;;;11.44;81.72
69713;BME280;56980;51.826;4.424;2022-09-27T07:05:23;99987.97;;;11.57;81.53
69713;BME280;56980;51.826;4.424;2022-09-27T07:07:50;99990.75;;;11.48;81.29
69713;BME280;56980;51.826;4.424;2022-09-27T07:10:17;99988.22;;;11.59;80.39
69713;BME280;56980;51.826;4.424;2022-09-27T07:12:43;99995.41;;;11.71;80.77
69713;BME280;56980;51.826;4.424;2022-09-27T07:15:12;99984.72;;;11.68;79.97
69713;BME280;56980;51.826;4.424;2022-09-27T07:17:37;99987.47;;;11.82;79.63
69713;BME280;56980;51.826;4.424;2022-09-27T07:20:03;99983.91;;;11.76;80.38
69713;BME280;56980;51.826;4.424;2022-09-27T07:22:28;99988.78;;;11.87;79.89
69713;BME280;56980;51.826;4.424;2022-09-27T07:24:55;99980.38;;;11.85;80.42
69713;BME280;56980;51.826;4.424;2022-09-27T07:27:21;99978.13;;;11.83;79.39
69713;BME280;56980;51.826;4.424;2022-09-27T07:29:46;99980.00;;;12.07;79.60
69713;BME280;56980;51.826;4.424;2022-09-27T07:32:12;100000.41;;;11.87;80.88
69713;BME280;56980;51.826;4.424;2022-09-27T07:34:37;99982.47;;;12.05;80.36
69713;BME280;56980;51.826;4.424;2022-09-27T07:37:03;99996.69;;;12.14;80.66
69713;BME280;56980;51.826;4.424;2022-09-27T07:39:32;99999.50;;;12.20;80.14
69713;BME280;56980;51.826;4.424;2022-09-27T07:41:58;99997.41;;;12.00;80.42
69713;BME280;56980;51.826;4.424;2022-09-27T07:44:23;99989.19;;;12.09;79.35
69713;BME280;56980;51.826;4.424;2022-09-27T07:46:49;100017.66;;;12.14;79.75
69713;BME280;56980;51.826;4.424;2022-09-27T07:49:14;100022.06;;;11.97;79.50
69713;BME280;56980;51.826;4.424;2022-09-27T07:51:40;100030.44;;;11.60;81.67
69713;BME280;56980;51.826;4.424;2022-09-27T07:54:05;100015.09;;;11.57;81.89
69713;BME280;56980;51.826;4.424;2022-09-27T07:56:30;100016.81;;;11.69;80.92
69713;BME280;56980;51.826;4.424;2022-09-27T07:58:56;100011.44;;;11.60;81.68
69713;BME280;56980;51.826;4.424;2022-09-27T08:01:21;100026.47;;;11.70;81.45
69713;BME280;56980;51.826;4.424;2022-09-27T08:03:47;100025.13;;;11.89;80.05
69713;BME280;56980;51.826;4.424;2022-09-27T08:06:12;100021.31;;;11.72;79.48
69713;BME280;56980;51.826;4.424;2022-09-27T08:08:38;100045.81;;;11.63;80.45
69713;BME280;56980;51.826;4.424;2022-09-27T08:11:14;100026.41;;;11.32;80.33
69713;BME280;56980;51.826;4.424;2022-09-27T08:13:41;100035.50;;;11.20;80.71
69713;BME280;56980;51.826;4.424;2022-09-27T08:16:06;100033.19;;;11.03;80.06
69713;BME280;56980;51.826;4.424;2022-09-27T08:18:32;100033.53;;;10.96;80.26
69713;BME280;56980;51.826;4.424;2022-09-27T08:20:58;100040.09;;;11.04;80.81
69713;BME280;56980;51.826;4.424;2022-09-27T08:23:24;100070.88;;;11.25;80.91
69713;BME280;56980;51.826;4.424;2022-09-27T08:25:54;100065.31;;;11.29;81.71
69713;BME280;56980;51.826;4.424;2022-09-27T08:28:21;100052.16;;;11.60;80.18
69713;BME280;56980;51.826;4.424;2022-09-27T08:30:48;100069.88;;;11.70;79.76
69713;BME280;56980;51.826;4.424;2022-09-27T08:33:13;100029.59;;;11.30;78.57
69713;BME280;56980;51.826;4.424;2022-09-27T08:35:39;100052.63;;;11.35;76.51
69713;BME280;56980;51.826;4.424;2022-09-27T08:38:04;100076.13;;;11.62;77.76
69713;BME280;56980;51.826;4.424;2022-09-27T08:40:48;100068.78;;;11.53;79.19
69713;BME280;56980;51.826;4.424;2022-09-27T08:46:20;100076.81;;;11.47;79.88
69713;BME280;56980;51.826;4.424;2022-09-27T08:48:54;100066.59;;;11.66;78.81
69713;BME280;56980;51.826;4.424;2022-09-27T08:51:26;100066.84;;;11.77;78.56
69713;BME280;56980;51.826;4.424;2022-09-27T08:54:18;100081.03;;;11.96;78.64
69713;BME280;56980;51.826;4.424;2022-09-27T08:56:46;100078.84;;;11.85;79.93
69713;BME280;56980;51.826;4.424;2022-09-27T08:59:15;100087.06;;;12.15;79.71
69713;BME280;56980;51.826;4.424;2022-09-27T09:01:47;100082.22;;;12.19;79.87
69713;BME280;56980;51.826;4.424;2022-09-27T09:04:21;100082.59;;;12.26;79.63
69713;BME280;56980;51.826;4.424;2022-09-27T09:06:59;100078.00;;;12.18;79.46
69713;BME280;56980;51.826;4.424;2022-09-27T09:09:47;100075.72;;;12.02;79.46
69713;BME280;56980;51.826;4.424;2022-09-27T09:18:01;100063.56;;;12.12;78.83
69713;BME280;56980;51.826;4.424;2022-09-27T09:20:46;100069.56;;;12.16;78.74
69713;BME280;56980;51.826;4.424;2022-09-27T09:23:36;100087.91;;;12.21;78.70
69713;BME280;56980;51.826;4.424;2022-09-27T09:34:26;100099.75;;;11.94;77.79
69713;BME280;56980;51.826;4.424;2022-09-27T09:37:08;100087.72;;;11.86;77.39
69713;BME280;56980;51.826;4.424;2022-09-27T09:39:57;100094.63;;;11.96;77.50
69713;BME280;56980;51.826;4.424;2022-09-27T09:47:44;100094.00;;;12.16;77.48
69713;BME280;56980;51.826;4.424;2022-09-27T09:50:19;100088.66;;;12.21;77.38
69713;BME280;56980;51.826;4.424;2022-09-27T09:52:52;100086.06;;;12.27;77.15
69713;BME280;56980;51.826;4.424;2022-09-27T09:55:22;100092.59;;;12.20;77.33
69713;BME280;56980;51.826;4.424;2022-09-27T10:00:19;100110.13;;;12.34;77.74
69713;BME280;56980;51.826;4.424;2022-09-27T10:02:45;100104.44;;;12.32;77.66
69713;BME280;56980;51.826;4.424;2022-09-27T10:05:31;100091.88;;;11.72;79.05
69713;BME280;56980;51.826;4.424;2022-09-27T10:08:00;100091.41;;;11.50;79.82
69713;BME280;56980;51.826;4.424;2022-09-27T10:10:27;100087.56;;;11.89;78.44
69713;BME280;56980;51.826;4.424;2022-09-27T10:12:53;100078.00;;;11.46;78.48
69713;BME280;56980;51.826;4.424;2022-09-27T10:15:22;100072.44;;;11.50;78.63
69713;BME280;56980;51.826;4.424;2022-09-27T10:17:50;100062.94;;;11.78;77.97
69713;BME280;56980;51.826;4.424;2022-09-27T10:20:38;100074.09;;;11.95;77.79
69713;BME280;56980;51.826;4.424;2022-09-27T10:23:14;100065.78;;;11.99;77.75
69713;BME280;56980;51.826;4.424;2022-09-27T10:25:45;100061.41;;;12.16;77.93
69713;BME280;56980;51.826;4.424;2022-09-27T10:28:26;100060.75;;;12.21;78.15
69713;BME280;56980;51.826;4.424;2022-09-27T10:30:55;100068.25;;;12.26;77.83
69713;BME280;56980;51.826;4.424;2022-09-27T10:33:22;100052.44;;;12.24;77.66
69713;BME280;56980;51.826;4.424;2022-09-27T10:35:47;100059.19;;;12.29;77.74
69713;BME280;56980;51.826;4.424;2022-09-27T10:40:52;100068.56;;;12.43;77.79
69713;BME280;56980;51.826;4.424;2022-09-27T10:48:39;100073.25;;;12.42;77.59
69713;BME280;56980;51.826;4.424;2022-09-27T10:51:29;100072.03;;;12.43;77.48
69713;BME280;56980;51.826;4.424;2022-09-27T10:53:56;100071.84;;;12.32;77.54
69713;BME280;56980;51.826;4.424;2022-09-27T10:56:30;100073.53;;;12.44;77.61
69713;BME280;56980;51.826;4.424;2022-09-27T10:58:57;100078.69;;;12.42;76.69
69713;BME280;56980;51.826;4.424;2022-09-27T11:01:38;100062.66;;;12.44;76.70
69713;BME280;56980;51.826;4.424;2022-09-27T11:04:05;100059.28;;;12.49;77.02
69713;BME280;56980;51.826;4.424;2022-09-27T11:06:31;100053.66;;;12.53;76.82
69713;BME280;56980;51.826;4.424;2022-09-27T11:09:20;100042.41;;;12.60;76.91
69713;BME280;56980;51.826;4.424;2022-09-27T11:12:05;100052.72;;;12.70;76.31
69713;BME280;56980;51.826;4.424;2022-09-27T11:14:32;100050.53;;;12.75;76.64
69713;BME280;56980;51.826;4.424;2022-09-27T11:17:09;100042.00;;;12.82;76.82
69713;BME280;56980;51.826;4.424;2022-09-27T11:20:13;100038.63;;;12.87;78.99
69713;BME280;56980;51.826;4.424;2022-09-27T11:31:05;100040.91;;;13.23;75.55
69713;BME280;56980;51.826;4.424;2022-09-27T11:52:23;100035.50;;;12.44;67.95
69713;BME280;56980;51.826;4.424;2022-09-27T12:11:16;100001.03;;;13.20;62.25
69713;BME280;56980;51.826;4.424;2022-09-27T12:13:59;99998.88;;;13.44;63.55
69713;BME280;56980;51.826;4.424;2022-09-27T12:16:26;99985.56;;;13.26;61.20
69713;BME280;56980;51.826;4.424;2022-09-27T12:18:53;100012.91;;;13.58;60.44
69713;BME280;56980;51.826;4.424;2022-09-27T12:21:20;99992.06;;;13.55;62.80
69713;BME280;56980;51.826;4.424;2022-09-27T12:23:53;99992.56;;;13.53;60.46
69713;BME280;56980;51.826;4.424;2022-09-27T12:26:22;99996.63;;;13.63;59.87
69713;BME280;56980;51.826;4.424;2022-09-27T12:28:59;99984.44;;;13.59;60.21
69713;BME280;56980;51.826;4.424;2022-09-27T12:31:37;99990.09;;;14.01;61.60
69713;BME280;56980;51.826;4.424;2022-09-27T12:37:01;100000.44;;;13.97;61.54
69713;BME280;56980;51.826;4.424;2022-09-27T12:39:51;99988.56;;;13.74;60.33
69713;BME280;56980;51.826;4.424;2022-09-27T12:45:00;99982.59;;;13.70;59.88
69713;BME280;56980;51.826;4.424;2022-09-27T12:53:11;99980.34;;;13.69;61.74
69713;BME280;56980;51.826;4.424;2022-09-27T12:56:12;100023.78;;;13.58;65.16
69713;BME280;56980;51.826;4.424;2022-09-27T12:58:51;99998.88;;;13.24;66.52
69713;BME280;56980;51.826;4.424;2022-09-27T13:07:25;99966.56;;;13.52;68.57
69713;BME280;56980;51.826;4.424;2022-09-27T13:12:39;99970.97;;;13.29;66.93
69713;BME280;56980;51.826;4.424;2022-09-27T13:23:01;99960.72;;;12.84;64.54
69713;BME280;56980;51.826;4.424;2022-09-27T13:31:07;99958.09;;;13.09;61.76
69713;BME280;56980;51.826;4.424;2022-09-27T13:52:33;99955.78;;;13.63;62.19
69713;BME280;56980;51.826;4.424;2022-09-27T13:55:03;99953.84;;;13.43;63.34
69713;BME280;56980;51.826;4.424;2022-09-27T13:57:48;99929.63;;;13.45;63.60
69713;BME280;56980;51.826;4.424;2022-09-27T14:00:24;99920.88;;;12.81;64.30
69713;BME280;56980;51.826;4.424;2022-09-27T14:05:40;99930.84;;;13.44;64.64
69713;BME280;56980;51.826;4.424;2022-09-27T14:08:06;99917.34;;;13.56;63.72
69713;BME280;56980;51.826;4.424;2022-09-27T14:10:42;99917.66;;;13.89;61.77
69713;BME280;56980;51.826;4.424;2022-09-27T14:13:08;99918.09;;;13.82;63.84
69713;BME280;56980;51.826;4.424;2022-09-27T14:15:35;99910.63;;;13.51;61.62
69713;BME280;56980;51.826;4.424;2022-09-27T14:18:01;99947.09;;;13.59;62.43
69713;BME280;56980;51.826;4.424;2022-09-27T14:20:36;99961.59;;;13.30;64.03
69713;BME280;56980;51.826;4.424;2022-09-27T14:23:04;99963.38;;;13.13;67.81
69713;BME280;56980;51.826;4.424;2022-09-27T14:25:29;99974.09;;;12.87;71.26
69713;BME280;56980;51.826;4.424;2022-09-27T14:27:55;99961.59;;;12.60;73.28
69713;BME280;56980;51.826;4.424;2022-09-27T14:30:24;99958.44;;;12.47;74.37
69713;BME280;56980;51.826;4.424;2022-09-27T14:32:51;99951.75;;;11.99;75.67
69713;BME280;56980;51.826;4.424;2022-09-27T14:35:24;99934.41;;;12.11;76.41
69713;BME280;56980;51.826;4.424;2022-09-27T14:38:18;99946.25;;;12.57;73.89
69713;BME280;56980;51.826;4.424;2022-09-27T14:41:00;99955.16;;;12.58;73.29
69713;BME280;56980;51.826;4.424;2022-09-27T14:43:27;99937.41;;;12.13;74.36
69713;BME280;56980;51.826;4.424;2022-09-27T14:45:58;99946.47;;;12.39;73.94
69713;BME280;56980;51.826;4.424;2022-09-27T14:51:03;99916.53;;;11.89;75.87
69713;BME280;56980;51.826;4.424;2022-09-27T14:53:33;99891.72;;;11.97;75.09
69713;BME280;56980;51.826;4.424;2022-09-27T14:55:59;99928.84;;;12.49;73.90
69713;BME280;56980;51.826;4.424;2022-09-27T14:58:25;99923.63;;;12.31;74.56
69713;BME280;56980;51.826;4.424;2022-09-27T15:00:52;99926.91;;;12.06;75.71
69713;BME280;56980;51.826;4.424;2022-09-27T15:03:25;99938.44;;;12.30;75.84
69713;BME280;56980;51.826;4.424;2022-09-27T15:05:52;99935.03;;;12.35;75.57
69713;BME280;56980;51.826;4.424;2022-09-27T15:08:19;99927.66;;;12.21;75.41
69713;BME280;56980;51.826;4.424;2022-09-27T15:10:47;99915.03;;;12.18;76.51
69713;BME280;56980;51.826;4.424;2022-09-27T15:13:15;99924.19;;;12.35;76.02
69713;BME280;56980;51.826;4.424;2022-09-27T15:15:42;99903.13;;;12.65;75.48
69713;BME280;56980;51.826;4.424;2022-09-27T15:18:45;99911.91;;;12.75;75.15
69713;BME280;56980;51.826;4.424;2022-09-27T15:21:13;99907.03;;;12.79;74.89
69713;BME280;56980;51.826;4.424;2022-09-27T15:23:44;99907.28;;;13.01;74.71
69713;BME280;56980;51.826;4.424;2022-09-27T15:28:46;99905.25;;;12.96;74.37
69713;BME280;56980;51.826;4.424;2022-09-27T15:31:13;99902.94;;;13.09;73.72
69713;BME280;56980;51.826;4.424;2022-09-27T15:33:39;99890.91;;;12.95;74.34
69713;BME280;56980;51.826;4.424;2022-09-27T15:36:07;99899.69;;;12.50;75.36
69713;BME280;56980;51.826;4.424;2022-09-27T15:38:37;99894.66;;;12.78;75.09
69713;BME280;56980;51.826;4.424;2022-09-27T15:41:11;99885.13;;;12.88;74.96
69713;BME280;56980;51.826;4.424;2022-09-27T15:43:46;99885.69;;;12.92;74.80
69713;BME280;56980;51.826;4.424;2022-09-27T15:46:32;99873.03;;;13.09;74.50
69713;BME280;56980;51.826;4.424;2022-09-27T15:51:43;99886.09;;;13.25;74.05
69713;BME280;56980;51.826;4.424;2022-09-27T15:54:09;99870.44;;;13.20;74.05
69713;BME280;56980;51.826;4.424;2022-09-27T15:56:36;99884.66;;;13.30;74.25
69713;BME280;56980;51.826;4.424;2022-09-27T15:59:02;99900.34;;;13.00;74.49
69713;BME280;56980;51.826;4.424;2022-09-27T16:01:27;99884.59;;;13.04;74.62
69713;BME280;56980;51.826;4.424;2022-09-27T16:03:53;99879.97;;;12.90;74.54
69713;BME280;56980;51.826;4.424;2022-09-27T16:06:26;99882.75;;;12.95;74.77
69713;BME280;56980;51.826;4.424;2022-09-27T16:08:52;99894.09;;;12.74;75.61
69713;BME280;56980;51.826;4.424;2022-09-27T16:11:18;99896.97;;;12.50;76.80